createdAt,value
2017-12-19T00:00:48.802Z,21.53
2017-12-19T00:03:15.256Z,24.40
2017-12-19T00:05:41.692Z,19.73
2017-12-19T00:08:08.132Z,23.23
2017-12-19T00:10:34.552Z,23.67
2017-12-19T00:13:00.892Z,20.60
2017-12-19T00:15:27.309Z,19.97
2017-12-19T00:17:54.692Z,25.83
2017-12-19T00:20:21.832Z,25.97
2017-12-19T00:22:48.187Z,22.07
2017-12-19T00:25:14.568Z,23.00
2017-12-19T00:27:40.976Z,25.10
2017-12-19T00:30:08.294Z,25.33
2017-12-19T00:32:34.679Z,22.77
2017-12-19T00:35:01.819Z,22.07
2017-12-19T00:37:28.196Z,21.30
2017-12-19T00:39:54.600Z,17.13
2017-12-19T00:42:21.018Z,18.40
2017-12-19T00:44:47.394Z,18.03
2017-12-19T00:47:13.768Z,17.10
2017-12-19T00:49:40.889Z,16.53
2017-12-19T00:52:07.634Z,17.87
2017-12-19T00:54:34.804Z,17.53
2017-12-19T00:57:01.175Z,19.47
2017-12-19T00:59:27.635Z,16.30
2017-12-19T01:01:54.722Z,17.40
2017-12-19T01:04:21.103Z,18.50
2017-12-19T01:06:48.237Z,17.27
2017-12-19T01:09:14.604Z,18.37
2017-12-19T01:11:40.977Z,17.87
2017-12-19T01:14:07.339Z,14.43
2017-12-19T01:16:33.827Z,19.37
2017-12-19T01:19:00.202Z,16.90
2017-12-19T01:21:27.352Z,18.50
2017-12-19T01:23:53.730Z,18.17
2017-12-19T01:26:20.841Z,18.27
2017-12-19T01:28:47.994Z,17.40
2017-12-19T01:31:14.322Z,15.27
2017-12-19T01:33:40.707Z,19.50
2017-12-19T01:36:08.354Z,17.80
2017-12-19T01:38:34.738Z,20.07
2017-12-19T01:41:01.068Z,15.27
2017-12-19T01:43:27.516Z,17.80
2017-12-19T01:45:54.633Z,16.87
2017-12-19T01:48:21.776Z,19.00
2017-12-19T01:50:48.133Z,16.50
2017-12-19T01:53:14.455Z,15.37
2017-12-19T01:55:40.819Z,16.20
2017-12-19T01:58:07.688Z,15.70
2017-12-19T02:00:34.099Z,15.63
2017-12-19T02:03:00.443Z,14.50
2017-12-19T02:05:26.799Z,16.10
2017-12-19T02:07:53.135Z,17.60
2017-12-19T02:10:19.573Z,15.40
2017-12-19T02:12:46.048Z,16.47
2017-12-19T02:15:12.392Z,15.80
2017-12-19T02:17:38.807Z,14.93
2017-12-19T02:20:05.898Z,16.87
2017-12-19T02:22:32.400Z,17.63
2017-12-19T02:24:59.719Z,15.57
2017-12-19T02:27:26.096Z,16.13
2017-12-19T02:29:52.483Z,15.60
2017-12-19T02:32:18.932Z,15.83
2017-12-19T02:34:45.311Z,19.13
2017-12-19T02:37:11.675Z,14.33
2017-12-19T02:39:38.115Z,17.80
2017-12-19T02:42:05.132Z,15.20
2017-12-19T02:44:31.640Z,17.07
2017-12-19T02:46:58.035Z,14.87
2017-12-19T02:49:24.467Z,14.60
2017-12-19T02:51:50.838Z,14.30
2017-12-19T02:54:17.248Z,15.40
2017-12-19T02:56:43.615Z,14.93
2017-12-19T02:59:10.974Z,16.60
2017-12-19T03:01:37.453Z,16.17
2017-12-19T03:04:05.389Z,15.10
2017-12-19T03:06:31.792Z,17.27
2017-12-19T03:08:58.172Z,16.27
2017-12-19T03:11:24.592Z,14.17
2017-12-19T03:13:50.983Z,14.77
2017-12-19T03:16:17.419Z,14.73
2017-12-19T03:18:43.907Z,15.60
2017-12-19T03:21:11.034Z,14.00
2017-12-19T03:23:38.212Z,16.37
2017-12-19T03:26:05.147Z,15.20
2017-12-19T03:28:32.308Z,14.93
2017-12-19T03:30:58.696Z,14.13
2017-12-19T03:33:25.124Z,17.23
2017-12-19T03:35:51.531Z,15.23
2017-12-19T03:38:17.887Z,15.03
2017-12-19T03:40:44.244Z,16.20
2017-12-19T03:43:10.611Z,15.87
2017-12-19T03:45:37.739Z,17.37
2017-12-19T03:48:04.779Z,15.57
2017-12-19T03:50:31.191Z,16.63
2017-12-19T03:52:57.559Z,16.00
2017-12-19T03:55:23.976Z,14.97
2017-12-19T03:57:50.398Z,17.20
2017-12-19T04:00:17.519Z,17.80
2017-12-19T04:02:44.000Z,18.33
2017-12-19T04:05:11.160Z,17.30
2017-12-19T04:07:37.587Z,16.70
2017-12-19T04:10:04.525Z,18.07
2017-12-19T04:12:30.938Z,17.13
2017-12-19T04:14:57.340Z,18.20
2017-12-19T04:17:23.788Z,15.87
2017-12-19T04:19:50.147Z,16.03
2017-12-19T04:22:17.257Z,17.50
2017-12-19T04:24:44.415Z,13.93
2017-12-19T04:27:10.824Z,16.30
2017-12-19T04:29:37.239Z,17.60
2017-12-19T04:32:04.271Z,15.93
2017-12-19T04:34:30.683Z,16.33
2017-12-19T04:36:57.061Z,16.10
2017-12-19T04:39:23.468Z,18.33
2017-12-19T04:41:49.890Z,17.30
2017-12-19T04:44:16.323Z,19.10
2017-12-19T04:46:42.711Z,15.50
2017-12-19T04:49:09.055Z,16.90
2017-12-19T04:51:35.563Z,18.30
2017-12-19T04:54:02.011Z,18.00
2017-12-19T04:56:29.870Z,18.33
2017-12-19T04:58:56.279Z,18.27
2017-12-19T05:01:22.647Z,17.63
2017-12-19T05:03:49.031Z,17.80
2017-12-19T05:06:16.175Z,19.23
2017-12-19T05:08:42.523Z,19.60
2017-12-19T05:11:09.704Z,19.90
2017-12-19T05:13:36.831Z,18.67
2017-12-19T05:16:03.865Z,16.67
2017-12-19T05:18:30.280Z,18.23
2017-12-19T05:20:56.663Z,18.53
2017-12-19T05:23:23.040Z,16.97
2017-12-19T05:25:50.253Z,17.80
2017-12-19T05:28:16.739Z,18.53
2017-12-19T05:30:43.127Z,20.63
2017-12-19T05:33:09.604Z,21.70
2017-12-19T05:35:36.055Z,21.43
2017-12-19T05:38:02.690Z,22.70
2017-12-19T05:40:29.065Z,20.73
2017-12-19T05:42:55.526Z,23.00
2017-12-19T05:45:21.984Z,23.77
2017-12-19T05:47:49.195Z,23.20
2017-12-19T05:50:16.348Z,24.00
2017-12-19T05:52:44.216Z,24.70
2017-12-19T05:55:10.612Z,23.27
2017-12-19T05:57:37.013Z,20.07
2017-12-19T06:00:04.114Z,24.93
2017-12-19T06:02:30.512Z,21.40
2017-12-19T06:04:56.907Z,25.57
2017-12-19T06:07:24.061Z,21.70
2017-12-19T06:09:50.432Z,25.10
2017-12-19T06:12:17.554Z,25.10
2017-12-19T06:14:44.003Z,24.00
2017-12-19T06:17:10.388Z,26.20
2017-12-19T06:19:36.747Z,28.93
2017-12-19T06:22:03.723Z,27.17
2017-12-19T06:24:30.160Z,27.67
2017-12-19T06:26:56.591Z,26.07
2017-12-19T06:29:22.967Z,28.70
2017-12-19T06:31:49.377Z,27.87
2017-12-19T06:34:15.836Z,27.47
2017-12-19T06:36:42.247Z,22.90
2017-12-19T06:39:09.387Z,30.20
2017-12-19T06:41:35.816Z,26.80
2017-12-19T06:44:02.339Z,27.07
2017-12-19T06:46:28.751Z,26.60
2017-12-19T06:48:55.152Z,25.40
2017-12-19T06:51:21.564Z,26.50
2017-12-19T06:53:47.960Z,24.97
2017-12-19T06:56:16.884Z,25.27
2017-12-19T06:58:44.104Z,24.30
2017-12-19T07:01:11.557Z,24.90
2017-12-19T07:03:39.073Z,26.37
2017-12-19T07:06:06.069Z,22.87
2017-12-19T07:08:32.592Z,25.57
2017-12-19T07:11:00.255Z,21.97
2017-12-19T07:13:27.408Z,26.17
2017-12-19T07:15:54.604Z,24.00
2017-12-19T07:18:21.148Z,24.63
2017-12-19T07:20:48.428Z,26.23
2017-12-19T07:23:15.042Z,25.23
2017-12-19T07:25:48.981Z,23.57
2017-12-19T07:28:16.018Z,26.60
2017-12-19T07:30:43.429Z,24.43
2017-12-19T07:33:10.536Z,29.20
2017-12-19T07:35:38.232Z,23.40
2017-12-19T07:38:05.324Z,25.23
2017-12-19T07:40:31.812Z,23.97
2017-12-19T07:42:58.288Z,20.67
2017-12-19T07:45:26.023Z,24.30
2017-12-19T07:47:52.728Z,23.97
2017-12-19T07:50:19.181Z,22.27
2017-12-19T07:52:46.359Z,22.03
2017-12-19T07:55:13.648Z,24.70
2017-12-19T07:57:40.119Z,21.20
2017-12-19T08:00:07.341Z,22.20
2017-12-19T08:02:33.793Z,26.03
2017-12-19T08:05:00.169Z,23.33
2017-12-19T08:07:26.716Z,20.80
2017-12-19T08:09:53.103Z,23.70
2017-12-19T08:12:19.597Z,22.87
2017-12-19T08:14:46.756Z,24.87
2017-12-19T08:17:21.115Z,25.50
2017-12-19T08:19:47.679Z,26.23
2017-12-19T08:22:14.275Z,26.93
2017-12-19T08:24:40.684Z,25.70
2017-12-19T08:27:07.216Z,27.83
2017-12-19T08:29:33.820Z,26.50
2017-12-19T08:32:00.249Z,21.93
2017-12-19T08:34:27.394Z,26.73
2017-12-19T08:36:54.427Z,24.73
2017-12-19T08:39:20.824Z,27.10
2017-12-19T08:41:47.264Z,23.30
2017-12-19T08:44:13.886Z,26.07
2017-12-19T08:46:40.473Z,25.40
2017-12-19T08:49:06.997Z,23.30
2017-12-19T08:51:35.541Z,25.37
2017-12-19T08:54:02.970Z,25.77
2017-12-19T08:56:29.948Z,23.93
2017-12-19T08:58:56.400Z,24.47
2017-12-19T09:01:23.535Z,26.80
2017-12-19T09:03:50.420Z,25.50
2017-12-19T09:06:16.876Z,27.50
2017-12-19T09:08:43.316Z,28.30
2017-12-19T09:11:09.748Z,26.63
2017-12-19T09:13:36.924Z,27.00
2017-12-19T09:16:04.063Z,24.23
2017-12-19T09:18:31.292Z,26.60
2017-12-19T09:20:57.881Z,23.07
2017-12-19T09:23:24.360Z,23.30
2017-12-19T09:25:50.802Z,25.10
2017-12-19T09:28:17.269Z,25.57
2017-12-19T09:30:43.703Z,24.50
2017-12-19T09:33:10.167Z,23.87
2017-12-19T09:35:36.622Z,23.30
2017-12-19T09:38:03.598Z,25.57
2017-12-19T09:40:30.786Z,22.97
2017-12-19T09:42:57.232Z,22.73
2017-12-19T09:45:23.644Z,24.07
2017-12-19T09:47:50.187Z,25.97
2017-12-19T09:50:16.669Z,22.97
2017-12-19T09:52:43.094Z,24.37
2017-12-19T09:55:09.650Z,22.27
2017-12-19T09:57:36.905Z,23.27
2017-12-19T10:00:03.761Z,24.73
2017-12-19T10:02:30.217Z,25.00
2017-12-19T10:04:56.687Z,24.83
2017-12-19T10:07:23.292Z,26.47
2017-12-19T10:09:49.872Z,25.57
2017-12-19T10:12:16.341Z,24.70
2017-12-19T10:14:43.539Z,24.37
2017-12-19T10:17:10.023Z,26.60
2017-12-19T10:19:37.393Z,23.27
2017-12-19T10:22:04.827Z,24.40
2017-12-19T10:24:31.315Z,21.47
2017-12-19T10:27:00.356Z,27.27
2017-12-19T10:29:27.773Z,23.80
2017-12-19T10:31:54.212Z,25.03
2017-12-19T10:34:20.648Z,24.93
2017-12-19T10:36:47.089Z,26.07
2017-12-19T10:39:14.292Z,24.13
2017-12-19T10:41:40.743Z,24.20
2017-12-19T10:44:10.388Z,24.53
2017-12-19T10:46:36.908Z,26.90
2017-12-19T10:49:06.107Z,25.33
2017-12-19T10:51:32.543Z,23.57
2017-12-19T10:53:59.028Z,24.33
2017-12-19T10:56:25.548Z,26.27
2017-12-19T10:58:52.080Z,27.70
2017-12-19T11:01:18.525Z,24.80
2017-12-19T11:03:44.917Z,26.90
2017-12-19T11:06:12.162Z,26.07
2017-12-19T11:08:38.908Z,26.20
2017-12-19T11:11:05.418Z,27.87
2017-12-19T11:13:31.886Z,24.87
2017-12-19T11:15:58.397Z,26.23
2017-12-19T11:18:24.833Z,29.43
2017-12-19T11:20:52.032Z,28.80
2017-12-19T11:23:18.476Z,30.20
2017-12-19T11:25:45.192Z,28.10
2017-12-19T11:28:11.824Z,25.47
2017-12-19T11:30:38.308Z,27.40
2017-12-19T11:33:04.718Z,26.70
2017-12-19T11:35:31.205Z,25.70
2017-12-19T11:37:58.392Z,27.10
2017-12-19T11:40:24.894Z,29.70
2017-12-19T11:42:51.405Z,29.93
2017-12-19T11:45:18.428Z,26.00
2017-12-19T11:47:44.913Z,30.53
2017-12-19T11:50:11.448Z,29.17
2017-12-19T11:52:39.420Z,26.63
2017-12-19T11:55:06.030Z,31.40
2017-12-19T11:57:32.501Z,32.97
2017-12-19T11:59:58.923Z,32.10
2017-12-19T12:02:26.117Z,29.87
2017-12-19T12:04:52.608Z,26.97
2017-12-19T12:07:19.136Z,30.97
2017-12-19T12:09:47.940Z,32.20
2017-12-19T12:12:15.254Z,29.60
2017-12-19T12:14:41.988Z,28.83
2017-12-19T12:17:10.955Z,30.63
2017-12-19T12:19:38.244Z,28.93
2017-12-19T12:22:04.933Z,30.67
2017-12-19T12:24:32.248Z,30.47
2017-12-19T12:26:58.807Z,31.97
2017-12-19T12:29:26.060Z,34.63
2017-12-19T12:31:53.368Z,30.87
2017-12-19T12:34:19.821Z,28.77
2017-12-19T12:36:46.360Z,30.53
2017-12-19T12:39:13.692Z,30.83
2017-12-19T12:41:40.168Z,30.57
2017-12-19T12:44:07.838Z,29.50
2017-12-19T12:46:34.296Z,30.57
2017-12-19T12:49:01.239Z,28.70
2017-12-19T12:51:27.725Z,30.53
2017-12-19T12:53:54.194Z,32.23
2017-12-19T12:56:21.873Z,29.53
2017-12-19T12:58:49.151Z,29.03
2017-12-19T13:01:15.628Z,28.03
2017-12-19T13:03:42.181Z,29.00
2017-12-19T13:06:09.017Z,31.63
2017-12-19T13:08:35.437Z,29.07
2017-12-19T13:11:02.134Z,29.07
2017-12-19T13:13:28.583Z,30.53
2017-12-19T13:15:55.031Z,27.13
2017-12-19T13:18:21.740Z,28.23
2017-12-19T13:20:48.219Z,28.93
2017-12-19T13:23:14.651Z,26.50
2017-12-19T13:25:41.072Z,26.27
2017-12-19T13:28:07.675Z,21.97
2017-12-19T13:30:35.966Z,23.03
2017-12-19T13:33:02.630Z,23.10
2017-12-19T13:35:29.091Z,24.90
2017-12-19T13:37:55.574Z,23.03
2017-12-19T13:40:22.020Z,22.00
2017-12-19T13:42:49.672Z,23.73
2017-12-19T13:45:16.843Z,23.07
2017-12-19T13:47:43.319Z,22.37
2017-12-19T13:50:09.895Z,21.07
2017-12-19T13:52:36.360Z,22.67
2017-12-19T13:55:03.864Z,24.40
2017-12-19T13:57:30.468Z,23.50
2017-12-19T13:59:57.099Z,23.47
2017-12-19T14:02:23.558Z,20.90
2017-12-19T14:04:50.446Z,19.63
2017-12-19T14:07:16.872Z,22.80
2017-12-19T14:09:43.567Z,22.87
2017-12-19T14:12:10.104Z,21.83
2017-12-19T14:14:38.219Z,21.27
2017-12-19T14:17:04.767Z,20.33
2017-12-19T14:19:32.034Z,19.90
2017-12-19T14:21:58.511Z,23.70
2017-12-19T14:24:25.891Z,21.60
2017-12-19T14:26:54.100Z,21.07
2017-12-19T14:29:20.562Z,17.27
2017-12-19T14:31:47.059Z,16.87
2017-12-19T14:34:14.207Z,18.00
2017-12-19T14:36:40.590Z,20.07
2017-12-19T14:39:07.750Z,16.63
2017-12-19T14:41:34.611Z,19.60
2017-12-19T14:44:03.016Z,15.70
2017-12-19T14:46:30.449Z,18.37
2017-12-19T14:48:56.846Z,18.47
2017-12-19T14:51:24.170Z,17.50
2017-12-19T14:53:50.647Z,18.57
2017-12-19T14:56:17.096Z,20.03
2017-12-19T14:58:43.548Z,19.37
2017-12-19T15:01:10.089Z,19.40
2017-12-19T15:03:36.586Z,18.57
2017-12-19T15:06:03.818Z,19.80
2017-12-19T15:08:30.279Z,18.40
2017-12-19T15:10:56.772Z,18.00
2017-12-19T15:13:23.246Z,16.80
2017-12-19T15:15:49.784Z,19.20
2017-12-19T15:18:16.238Z,16.90
2017-12-19T15:20:42.657Z,16.73
2017-12-19T15:23:09.359Z,16.07
2017-12-19T15:25:35.994Z,17.33
2017-12-19T15:28:02.705Z,16.97
2017-12-19T15:30:30.043Z,15.90
2017-12-19T15:32:56.544Z,14.10
2017-12-19T15:35:24.256Z,16.70
2017-12-19T15:37:50.753Z,15.10
2017-12-19T15:40:17.228Z,16.70
2017-12-19T15:42:43.718Z,16.07
2017-12-19T15:45:10.200Z,15.30
2017-12-19T15:47:39.424Z,14.77
2017-12-19T15:50:06.479Z,16.47
2017-12-19T15:52:32.953Z,16.93
2017-12-19T15:54:59.644Z,15.17
2017-12-19T15:57:28.071Z,16.90
2017-12-19T15:59:54.453Z,14.07
2017-12-19T16:02:22.768Z,16.37
2017-12-19T16:04:49.179Z,16.57
2017-12-19T16:07:15.664Z,15.20
2017-12-19T16:09:42.012Z,14.70
2017-12-19T16:12:08.469Z,16.60
2017-12-19T16:14:36.339Z,15.17
2017-12-19T16:17:03.679Z,17.07
2017-12-19T16:19:30.119Z,16.60
2017-12-19T16:21:56.500Z,17.80
2017-12-19T16:24:22.875Z,18.43
2017-12-19T16:26:50.079Z,18.43
2017-12-19T16:29:16.471Z,18.07
2017-12-19T16:31:42.871Z,18.70
2017-12-19T16:34:09.375Z,19.23
2017-12-19T16:36:35.820Z,18.53
2017-12-19T16:39:02.526Z,21.10
2017-12-19T16:41:28.915Z,18.50
2017-12-19T16:43:55.281Z,20.33
2017-12-19T16:46:22.389Z,20.50
2017-12-19T16:48:48.887Z,23.10
2017-12-19T16:51:15.320Z,20.53
2017-12-19T16:53:42.405Z,22.97
2017-12-19T16:56:09.007Z,23.83
2017-12-19T16:58:35.468Z,20.50
2017-12-19T17:01:01.932Z,20.43
2017-12-19T17:03:28.327Z,21.30
2017-12-19T17:05:54.814Z,20.07
2017-12-19T17:08:21.232Z,21.13
2017-12-19T17:10:47.640Z,19.60
2017-12-19T17:13:14.048Z,24.10
2017-12-19T17:15:40.458Z,21.70
2017-12-19T17:18:06.835Z,22.13
2017-12-19T17:20:33.263Z,20.73
2017-12-19T17:22:59.870Z,20.53
2017-12-19T17:25:26.252Z,23.33
2017-12-19T17:27:52.654Z,22.30
2017-12-19T17:30:19.144Z,22.30
2017-12-19T17:32:45.542Z,22.40
2017-12-19T17:35:11.913Z,21.40
2017-12-19T17:37:38.354Z,18.73
2017-12-19T17:40:05.489Z,21.57
2017-12-19T17:42:31.894Z,20.30
2017-12-19T17:44:58.309Z,21.90
2017-12-19T17:47:24.752Z,22.20
2017-12-19T17:49:51.909Z,21.93
2017-12-19T17:52:18.312Z,21.90
2017-12-19T17:54:44.771Z,20.80
2017-12-19T17:57:11.183Z,20.57
2017-12-19T17:59:37.804Z,18.37
2017-12-19T18:02:04.725Z,21.23
2017-12-19T18:04:31.133Z,18.90
2017-12-19T18:06:57.483Z,21.00
2017-12-19T18:09:23.855Z,22.33
2017-12-19T18:11:50.266Z,23.37
2017-12-19T18:14:16.624Z,20.97
2017-12-19T18:16:42.985Z,18.23
2017-12-19T18:19:09.370Z,19.73
2017-12-19T18:21:36.466Z,15.80
2017-12-19T18:24:03.149Z,17.43
2017-12-19T18:26:30.322Z,16.40
2017-12-19T18:28:56.739Z,14.47
2017-12-19T18:31:23.152Z,17.53
2017-12-19T18:33:49.539Z,15.50
2017-12-19T18:36:15.893Z,17.07
2017-12-19T18:38:42.248Z,14.30
2017-12-19T18:41:10.109Z,15.33
2017-12-19T18:43:37.300Z,18.77
2017-12-19T18:46:04.951Z,17.80
2017-12-19T18:48:31.381Z,19.70
2017-12-19T18:50:57.787Z,23.00
2017-12-19T18:53:24.219Z,18.80
2017-12-19T18:55:50.645Z,15.07
2017-12-19T18:58:17.839Z,19.40
2017-12-19T19:00:44.974Z,15.57
2017-12-19T19:03:12.122Z,19.07
2017-12-19T19:05:38.606Z,17.67
2017-12-19T19:08:05.909Z,19.90
2017-12-19T19:10:32.379Z,16.90
2017-12-19T19:12:59.503Z,18.67
2017-12-19T19:15:25.861Z,18.47
2017-12-19T19:17:52.304Z,21.40
2017-12-19T19:20:18.652Z,22.90
2017-12-19T19:22:45.099Z,25.30
2017-12-19T19:25:11.707Z,22.37
2017-12-19T19:27:38.159Z,19.20
2017-12-19T19:30:05.142Z,30.20
2017-12-19T19:32:32.459Z,24.93
2017-12-19T19:34:58.915Z,20.43
2017-12-19T19:37:26.156Z,18.37
2017-12-19T19:39:52.555Z,24.50
2017-12-19T19:42:19.000Z,22.27
2017-12-19T19:44:45.464Z,20.17
2017-12-19T19:47:12.630Z,24.20
2017-12-19T19:49:39.831Z,20.80
2017-12-19T19:52:06.410Z,20.50
2017-12-19T19:54:32.849Z,23.53
2017-12-19T19:56:59.262Z,20.97
2017-12-19T19:59:26.443Z,21.33
2017-12-19T20:01:53.508Z,22.20
2017-12-19T20:04:19.947Z,20.50
2017-12-19T20:06:47.340Z,22.60
2017-12-19T20:09:13.751Z,20.80
2017-12-19T20:11:40.213Z,22.47
2017-12-19T20:14:06.633Z,20.80
2017-12-19T20:16:33.754Z,21.87
2017-12-19T20:19:00.179Z,20.90
2017-12-19T20:21:26.610Z,23.17
2017-12-19T20:23:53.010Z,23.37
2017-12-19T20:26:19.472Z,22.03
2017-12-19T20:28:45.919Z,20.03
2017-12-19T20:31:12.351Z,22.57
2017-12-19T20:33:39.518Z,20.03
2017-12-19T20:36:06.431Z,21.47
2017-12-19T20:38:32.782Z,20.40
2017-12-19T20:40:59.186Z,23.20
2017-12-19T20:43:25.615Z,24.50
2017-12-19T20:45:52.012Z,21.73
2017-12-19T20:48:18.406Z,24.67
2017-12-19T20:50:44.848Z,22.60
2017-12-19T20:53:11.243Z,23.17
2017-12-19T20:55:37.703Z,23.57
2017-12-19T20:58:06.286Z,22.57
2017-12-19T21:00:32.812Z,23.90
2017-12-19T21:02:59.199Z,25.20
2017-12-19T21:05:26.355Z,24.77
2017-12-19T21:07:52.787Z,23.27
2017-12-19T21:10:19.979Z,26.10
2017-12-19T21:12:47.131Z,24.40
2017-12-19T21:15:14.359Z,22.47
2017-12-19T21:17:41.401Z,27.27
2017-12-19T21:20:09.260Z,27.37
2017-12-19T21:22:35.694Z,27.53
2017-12-19T21:25:03.144Z,27.00
2017-12-19T21:27:30.348Z,28.07
2017-12-19T21:29:56.795Z,26.77
2017-12-19T21:32:23.440Z,31.63
2017-12-19T21:34:49.855Z,30.27
2017-12-19T21:37:16.323Z,31.50
2017-12-19T21:39:43.439Z,31.17
2017-12-19T21:42:09.851Z,34.30
2017-12-19T21:44:36.290Z,30.50
2017-12-19T21:47:03.173Z,30.83
2017-12-19T21:49:30.282Z,35.63
2017-12-19T21:51:56.694Z,33.60
2017-12-19T21:54:23.851Z,34.30
2017-12-19T21:56:50.216Z,40.37
2017-12-19T21:59:16.650Z,34.60
2017-12-19T22:01:43.810Z,36.00
2017-12-19T22:04:10.215Z,33.70
2017-12-19T22:06:36.626Z,39.17
2017-12-19T22:09:04.251Z,37.50
2017-12-19T22:11:30.662Z,39.80
2017-12-19T22:13:57.105Z,42.03
2017-12-19T22:16:23.510Z,40.60
2017-12-19T22:18:49.969Z,34.27
2017-12-19T22:21:16.378Z,36.13
2017-12-19T22:23:42.800Z,38.57
2017-12-19T22:26:09.226Z,38.57
2017-12-19T22:28:35.662Z,37.13
2017-12-19T22:31:02.966Z,40.97
2017-12-19T22:33:29.426Z,39.90
2017-12-19T22:35:56.598Z,34.93
2017-12-19T22:38:23.769Z,37.40
2017-12-19T22:40:50.222Z,36.93
2017-12-19T22:43:17.454Z,34.77
2017-12-19T22:45:43.865Z,30.67
2017-12-19T22:48:10.288Z,35.07
2017-12-19T22:50:37.424Z,38.83
2017-12-19T22:53:04.623Z,36.90
2017-12-19T22:55:31.075Z,35.00
2017-12-19T22:57:57.455Z,37.30
2017-12-19T23:00:24.627Z,33.40
2017-12-19T23:02:51.155Z,34.70
2017-12-19T23:05:17.551Z,32.97
2017-12-19T23:07:43.972Z,34.67
2017-12-19T23:10:10.456Z,37.13
2017-12-19T23:12:36.879Z,33.37
2017-12-19T23:15:03.738Z,35.80
2017-12-19T23:17:30.233Z,33.30
2017-12-19T23:19:56.586Z,35.80
2017-12-19T23:22:23.006Z,32.97
2017-12-19T23:24:50.944Z,33.00
2017-12-19T23:27:18.147Z,34.93
2017-12-19T23:29:44.555Z,35.40
2017-12-19T23:32:10.939Z,33.50
2017-12-19T23:34:37.377Z,36.97
2017-12-19T23:37:04.353Z,33.70
2017-12-19T23:39:30.836Z,34.93
2017-12-19T23:41:57.184Z,33.07
2017-12-19T23:44:23.636Z,34.80
2017-12-19T23:46:50.739Z,32.60
2017-12-19T23:49:17.110Z,35.30
2017-12-19T23:51:43.560Z,31.70
2017-12-19T23:54:11.380Z,33.67
2017-12-19T23:56:37.800Z,33.20
2017-12-19T23:59:05.705Z,34.87
